sensor_id;sensor_type;location;lat;lon;timestamp;P1;durP1;ratioP1;P2;durP2;ratioP2
8086;SDS011;4086;54.412;9.980;2023-09-07T00:01:09;2.70;;;2.50;;
8086;SDS011;4086;54.412;9.980;2023-09-07T00:03:35;2.43;;;2.27;;
8086;SDS011;4086;54.412;9.980;2023-09-07T00:06:05;2.73;;;2.53;;
8086;SDS011;4086;54.412;9.980;2023-09-07T00:08:32;2.40;;;2.20;;
8086;SDS011;4086;54.412;9.980;2023-09-07T00:11:03;2.70;;;2.50;;
8086;SDS011;4086;54.412;9.980;2023-09-07T00:13:30;3.13;;;2.93;;
8086;SDS011;4086;54.412;9.980;2023-09-07T00:15:58;2.67;;;2.47;;
8086;SDS011;4086;54.412;9.980;2023-09-07T00:18:24;2.60;;;2.40;;
8086;SDS011;4086;54.412;9.980;2023-09-07T00:20:51;2.50;;;2.30;;
8086;SDS011;4086;54.412;9.980;2023-09-07T00:23:17;4.03;;;2.80;;
8086;SDS011;4086;54.412;9.980;2023-09-07T00:25:44;2.67;;;2.47;;
8086;SDS011;4086;54.412;9.980;2023-09-07T00:28:12;2.37;;;2.23;;
8086;SDS011;4086;54.412;9.980;2023-09-07T00:30:38;2.53;;;2.33;;
8086;SDS011;4086;54.412;9.980;2023-09-07T00:33:05;2.97;;;2.10;;
8086;SDS011;4086;54.412;9.980;2023-09-07T00:35:31;3.33;;;2.87;;
8086;SDS011;4086;54.412;9.980;2023-09-07T00:37:58;2.57;;;2.37;;
8086;SDS011;4086;54.412;9.980;2023-09-07T00:40:24;2.80;;;2.60;;
8086;SDS011;4086;54.412;9.980;2023-09-07T00:42:51;2.80;;;2.60;;
8086;SDS011;4086;54.412;9.980;2023-09-07T00:45:19;2.30;;;2.10;;
8086;SDS011;4086;54.412;9.980;2023-09-07T00:47:45;2.43;;;2.23;;
8086;SDS011;4086;54.412;9.980;2023-09-07T00:50:11;2.33;;;1.93;;
8086;SDS011;4086;54.412;9.980;2023-09-07T00:52:39;3.40;;;2.50;;
8086;SDS011;4086;54.412;9.980;2023-09-07T00:55:07;3.00;;;2.50;;
8086;SDS011;4086;54.412;9.980;2023-09-07T00:57:34;2.30;;;2.10;;
8086;SDS011;4086;54.412;9.980;2023-09-07T01:00:01;2.93;;;2.60;;
8086;SDS011;4086;54.412;9.980;2023-09-07T01:02:30;3.10;;;2.27;;
8086;SDS011;4086;54.412;9.980;2023-09-07T01:04:56;3.23;;;2.77;;
8086;SDS011;4086;54.412;9.980;2023-09-07T01:07:24;2.17;;;2.07;;
8086;SDS011;4086;54.412;9.980;2023-09-07T01:09:52;2.53;;;2.33;;
8086;SDS011;4086;54.412;9.980;2023-09-07T01:12:22;3.17;;;2.87;;
8086;SDS011;4086;54.412;9.980;2023-09-07T01:14:48;3.00;;;2.80;;
8086;SDS011;4086;54.412;9.980;2023-09-07T01:17:15;2.50;;;2.30;;
8086;SDS011;4086;54.412;9.980;2023-09-07T01:19:43;5.03;;;2.80;;
8086;SDS011;4086;54.412;9.980;2023-09-07T01:22:11;3.00;;;2.77;;
8086;SDS011;4086;54.412;9.980;2023-09-07T01:24:38;3.23;;;2.83;;
8086;SDS011;4086;54.412;9.980;2023-09-07T01:27:05;4.23;;;2.73;;
8086;SDS011;4086;54.412;9.980;2023-09-07T01:29:31;3.20;;;2.90;;
8086;SDS011;4086;54.412;9.980;2023-09-07T01:31:58;2.60;;;2.40;;
8086;SDS011;4086;54.412;9.980;2023-09-07T01:34:25;3.10;;;2.90;;
8086;SDS011;4086;54.412;9.980;2023-09-07T01:40:20;2.73;;;2.53;;
8086;SDS011;4086;54.412;9.980;2023-09-07T01:42:47;3.03;;;2.73;;
8086;SDS011;4086;54.412;9.980;2023-09-07T01:45:13;3.40;;;2.57;;
8086;SDS011;4086;54.412;9.980;2023-09-07T01:47:40;3.23;;;2.93;;
8086;SDS011;4086;54.412;9.980;2023-09-07T01:50:06;3.50;;;2.47;;
8086;SDS011;4086;54.412;9.980;2023-09-07T01:52:33;3.40;;;3.10;;
8086;SDS011;4086;54.412;9.980;2023-09-07T01:54:59;3.20;;;2.90;;
8086;SDS011;4086;54.412;9.980;2023-09-07T01:57:27;3.63;;;3.00;;
8086;SDS011;4086;54.412;9.980;2023-09-07T01:59:54;3.00;;;2.63;;
8086;SDS011;4086;54.412;9.980;2023-09-07T02:02:20;2.73;;;2.53;;
8086;SDS011;4086;54.412;9.980;2023-09-07T02:04:47;2.53;;;2.33;;
8086;SDS011;4086;54.412;9.980;2023-09-07T02:07:13;4.03;;;3.17;;
8086;SDS011;4086;54.412;9.980;2023-09-07T02:09:40;3.10;;;2.30;;
8086;SDS011;4086;54.412;9.980;2023-09-07T02:12:06;3.93;;;2.63;;
8086;SDS011;4086;54.412;9.980;2023-09-07T02:14:34;2.63;;;2.43;;
8086;SDS011;4086;54.412;9.980;2023-09-07T02:17:00;3.03;;;2.77;;
8086;SDS011;4086;54.412;9.980;2023-09-07T02:19:26;3.47;;;2.50;;
8086;SDS011;4086;54.412;9.980;2023-09-07T02:21:53;2.50;;;2.30;;
8086;SDS011;4086;54.412;9.980;2023-09-07T02:24:19;3.07;;;2.70;;
8086;SDS011;4086;54.412;9.980;2023-09-07T02:26:45;3.30;;;2.90;;
8086;SDS011;4086;54.412;9.980;2023-09-07T02:29:12;2.83;;;2.60;;
8086;SDS011;4086;54.412;9.980;2023-09-07T02:31:40;3.30;;;2.73;;
8086;SDS011;4086;54.412;9.980;2023-09-07T02:34:06;3.63;;;2.70;;
8086;SDS011;4086;54.412;9.980;2023-09-07T02:36:33;3.60;;;2.27;;
8086;SDS011;4086;54.412;9.980;2023-09-07T02:38:59;2.70;;;2.13;;
8086;SDS011;4086;54.412;9.980;2023-09-07T02:41:26;2.73;;;2.53;;
8086;SDS011;4086;54.412;9.980;2023-09-07T02:43:52;2.80;;;2.50;;
8086;SDS011;4086;54.412;9.980;2023-09-07T02:46:19;2.43;;;2.23;;
8086;SDS011;4086;54.412;9.980;2023-09-07T02:48:46;3.37;;;2.90;;
8086;SDS011;4086;54.412;9.980;2023-09-07T02:51:13;3.20;;;2.90;;
8086;SDS011;4086;54.412;9.980;2023-09-07T02:53:39;3.63;;;2.40;;
8086;SDS011;4086;54.412;9.980;2023-09-07T02:56:06;2.50;;;2.30;;
8086;SDS011;4086;54.412;9.980;2023-09-07T02:58:32;3.37;;;2.87;;
8086;SDS011;4086;54.412;9.980;2023-09-07T03:00:59;2.60;;;2.40;;
8086;SDS011;4086;54.412;9.980;2023-09-07T03:03:25;3.33;;;2.67;;
8086;SDS011;4086;54.412;9.980;2023-09-07T03:05:53;3.03;;;2.73;;
8086;SDS011;4086;54.412;9.980;2023-09-07T03:08:19;3.53;;;2.63;;
8086;SDS011;4086;54.412;9.980;2023-09-07T03:10:45;3.07;;;2.77;;
8086;SDS011;4086;54.412;9.980;2023-09-07T03:13:12;4.43;;;2.50;;
8086;SDS011;4086;54.412;9.980;2023-09-07T03:15:38;2.77;;;2.57;;
8086;SDS011;4086;54.412;9.980;2023-09-07T03:18:04;2.80;;;2.60;;
8086;SDS011;4086;54.412;9.980;2023-09-07T03:20:32;4.23;;;3.00;;
8086;SDS011;4086;54.412;9.980;2023-09-07T03:23:00;2.80;;;2.60;;
8086;SDS011;4086;54.412;9.980;2023-09-07T03:25:27;3.50;;;2.80;;
8086;SDS011;4086;54.412;9.980;2023-09-07T03:27:53;4.10;;;2.80;;
8086;SDS011;4086;54.412;9.980;2023-09-07T03:30:20;2.87;;;2.57;;
8086;SDS011;4086;54.412;9.980;2023-09-07T03:32:46;2.57;;;2.37;;
8086;SDS011;4086;54.412;9.980;2023-09-07T03:35:12;3.23;;;2.93;;
8086;SDS011;4086;54.412;9.980;2023-09-07T03:37:41;2.70;;;2.50;;
8086;SDS011;4086;54.412;9.980;2023-09-07T03:40:09;2.83;;;2.63;;
8086;SDS011;4086;54.412;9.980;2023-09-07T03:42:36;2.37;;;2.23;;
8086;SDS011;4086;54.412;9.980;2023-09-07T03:45:03;4.23;;;2.70;;
8086;SDS011;4086;54.412;9.980;2023-09-07T03:47:29;2.83;;;2.43;;
8086;SDS011;4086;54.412;9.980;2023-09-07T03:49:56;3.47;;;2.37;;
8086;SDS011;4086;54.412;9.980;2023-09-07T03:52:23;3.30;;;3.00;;
8086;SDS011;4086;54.412;9.980;2023-09-07T03:54:51;2.83;;;2.57;;
8086;SDS011;4086;54.412;9.980;2023-09-07T03:57:20;3.10;;;2.23;;
8086;SDS011;4086;54.412;9.980;2023-09-07T03:59:47;3.73;;;3.17;;
8086;SDS011;4086;54.412;9.980;2023-09-07T04:02:13;3.20;;;2.63;;
8086;SDS011;4086;54.412;9.980;2023-09-07T04:04:40;3.03;;;2.53;;
8086;SDS011;4086;54.412;9.980;2023-09-07T04:07:07;3.03;;;2.73;;
8086;SDS011;4086;54.412;9.980;2023-09-07T04:09:33;3.30;;;3.00;;
8086;SDS011;4086;54.412;9.980;2023-09-07T04:11:59;3.13;;;2.83;;
8086;SDS011;4086;54.412;9.980;2023-09-07T04:14:30;4.03;;;3.10;;
8086;SDS011;4086;54.412;9.980;2023-09-07T04:16:56;3.23;;;2.93;;
8086;SDS011;4086;54.412;9.980;2023-09-07T04:19:22;3.13;;;2.83;;
8086;SDS011;4086;54.412;9.980;2023-09-07T04:21:49;3.77;;;3.40;;
8086;SDS011;4086;54.412;9.980;2023-09-07T04:24:15;4.20;;;3.17;;
8086;SDS011;4086;54.412;9.980;2023-09-07T04:26:42;3.20;;;2.90;;
8086;SDS011;4086;54.412;9.980;2023-09-07T04:29:08;3.80;;;3.00;;
8086;SDS011;4086;54.412;9.980;2023-09-07T04:31:36;3.47;;;3.10;;
8086;SDS011;4086;54.412;9.980;2023-09-07T04:34:03;3.30;;;2.97;;
8086;SDS011;4086;54.412;9.980;2023-09-07T04:36:29;4.17;;;3.47;;
8086;SDS011;4086;54.412;9.980;2023-09-07T04:38:56;3.87;;;3.40;;
8086;SDS011;4086;54.412;9.980;2023-09-07T04:41:22;4.63;;;3.40;;
8086;SDS011;4086;54.412;9.980;2023-09-07T04:43:49;3.87;;;3.30;;
8086;SDS011;4086;54.412;9.980;2023-09-07T04:46:15;4.47;;;3.13;;
8086;SDS011;4086;54.412;9.980;2023-09-07T04:48:43;5.47;;;3.73;;
8086;SDS011;4086;54.412;9.980;2023-09-07T04:51:10;4.27;;;3.20;;
8086;SDS011;4086;54.412;9.980;2023-09-07T04:53:38;4.80;;;3.73;;
8086;SDS011;4086;54.412;9.980;2023-09-07T04:56:05;5.10;;;4.07;;
8086;SDS011;4086;54.412;9.980;2023-09-07T04:58:33;5.07;;;3.73;;
8086;SDS011;4086;54.412;9.980;2023-09-07T05:01:02;4.53;;;4.03;;
8086;SDS011;4086;54.412;9.980;2023-09-07T05:03:29;5.07;;;3.70;;
8086;SDS011;4086;54.412;9.980;2023-09-07T05:05:57;7.40;;;4.83;;
8086;SDS011;4086;54.412;9.980;2023-09-07T05:08:23;4.47;;;3.63;;
8086;SDS011;4086;54.412;9.980;2023-09-07T05:10:54;4.23;;;3.63;;
8086;SDS011;4086;54.412;9.980;2023-09-07T05:13:20;4.73;;;3.80;;
8086;SDS011;4086;54.412;9.980;2023-09-07T05:15:47;5.10;;;3.93;;
8086;SDS011;4086;54.412;9.980;2023-09-07T05:18:14;7.37;;;4.23;;
8086;SDS011;4086;54.412;9.980;2023-09-07T05:20:40;5.47;;;3.97;;
8086;SDS011;4086;54.412;9.980;2023-09-07T05:23:08;5.03;;;3.90;;
8086;SDS011;4086;54.412;9.980;2023-09-07T05:25:34;5.03;;;4.50;;
8086;SDS011;4086;54.412;9.980;2023-09-07T05:28:08;5.80;;;4.03;;
8086;SDS011;4086;54.412;9.980;2023-09-07T05:30:35;7.07;;;4.20;;
8086;SDS011;4086;54.412;9.980;2023-09-07T05:33:01;4.63;;;3.70;;
8086;SDS011;4086;54.412;9.980;2023-09-07T05:35:28;5.70;;;4.00;;
8086;SDS011;4086;54.412;9.980;2023-09-07T05:37:57;5.60;;;4.03;;
8086;SDS011;4086;54.412;9.980;2023-09-07T05:40:25;4.80;;;4.00;;
8086;SDS011;4086;54.412;9.980;2023-09-07T05:42:51;4.03;;;3.53;;
8086;SDS011;4086;54.412;9.980;2023-09-07T05:45:17;5.83;;;4.40;;
8086;SDS011;4086;54.412;9.980;2023-09-07T05:47:44;5.80;;;4.10;;
8086;SDS011;4086;54.412;9.980;2023-09-07T05:50:10;3.50;;;3.20;;
8086;SDS011;4086;54.412;9.980;2023-09-07T05:52:37;4.93;;;4.07;;
8086;SDS011;4086;54.412;9.980;2023-09-07T05:55:03;3.90;;;3.53;;
8086;SDS011;4086;54.412;9.980;2023-09-07T05:57:32;4.20;;;3.40;;
8086;SDS011;4086;54.412;9.980;2023-09-07T05:59:58;4.77;;;4.03;;
8086;SDS011;4086;54.412;9.980;2023-09-07T06:02:24;4.63;;;4.10;;
8086;SDS011;4086;54.412;9.980;2023-09-07T06:04:51;4.30;;;3.60;;
8086;SDS011;4086;54.412;9.980;2023-09-07T06:07:18;6.20;;;4.70;;
8086;SDS011;4086;54.412;9.980;2023-09-07T06:09:44;5.10;;;3.90;;
8086;SDS011;4086;54.412;9.980;2023-09-07T06:12:10;6.70;;;4.73;;
8086;SDS011;4086;54.412;9.980;2023-09-07T06:14:39;4.37;;;3.70;;
8086;SDS011;4086;54.412;9.980;2023-09-07T06:17:05;6.97;;;4.33;;
8086;SDS011;4086;54.412;9.980;2023-09-07T06:19:31;5.00;;;4.50;;
8086;SDS011;4086;54.412;9.980;2023-09-07T06:21:58;4.03;;;3.67;;
8086;SDS011;4086;54.412;9.980;2023-09-07T06:24:24;3.97;;;3.43;;
8086;SDS011;4086;54.412;9.980;2023-09-07T06:26:50;4.13;;;3.63;;
8086;SDS011;4086;54.412;9.980;2023-09-07T06:29:17;6.13;;;4.27;;
8086;SDS011;4086;54.412;9.980;2023-09-07T06:31:44;5.23;;;3.80;;
8086;SDS011;4086;54.412;9.980;2023-09-07T06:34:11;5.03;;;3.90;;
8086;SDS011;4086;54.412;9.980;2023-09-07T06:36:37;5.70;;;4.20;;
8086;SDS011;4086;54.412;9.980;2023-09-07T06:39:03;5.00;;;3.80;;
8086;SDS011;4086;54.412;9.980;2023-09-07T06:41:30;3.30;;;3.00;;
8086;SDS011;4086;54.412;9.980;2023-09-07T06:43:57;4.30;;;3.90;;
8086;SDS011;4086;54.412;9.980;2023-09-07T06:46:23;4.80;;;3.53;;
8086;SDS011;4086;54.412;9.980;2023-09-07T06:48:51;4.67;;;3.97;;
8086;SDS011;4086;54.412;9.980;2023-09-07T06:51:17;4.97;;;4.10;;
8086;SDS011;4086;54.412;9.980;2023-09-07T06:53:43;3.30;;;3.00;;
8086;SDS011;4086;54.412;9.980;2023-09-07T06:56:10;4.07;;;3.67;;
8086;SDS011;4086;54.412;9.980;2023-09-07T06:58:36;5.33;;;4.50;;
8086;SDS011;4086;54.412;9.980;2023-09-07T07:01:02;4.07;;;3.70;;
8086;SDS011;4086;54.412;9.980;2023-09-07T07:03:29;4.50;;;3.40;;
8086;SDS011;4086;54.412;9.980;2023-09-07T07:05:57;4.33;;;3.60;;
8086;SDS011;4086;54.412;9.980;2023-09-07T07:08:24;3.70;;;3.40;;
8086;SDS011;4086;54.412;9.980;2023-09-07T07:10:50;3.70;;;3.37;;
8086;SDS011;4086;54.412;9.980;2023-09-07T07:13:17;4.53;;;3.20;;
8086;SDS011;4086;54.412;9.980;2023-09-07T07:15:44;4.93;;;3.90;;
8086;SDS011;4086;54.412;9.980;2023-09-07T07:18:10;4.17;;;3.77;;
8086;SDS011;4086;54.412;9.980;2023-09-07T07:20:36;5.90;;;4.27;;
8086;SDS011;4086;54.412;9.980;2023-09-07T07:23:04;4.93;;;3.27;;
8086;SDS011;4086;54.412;9.980;2023-09-07T07:25:31;5.47;;;3.83;;
8086;SDS011;4086;54.412;9.980;2023-09-07T07:27:58;4.70;;;3.87;;
8086;SDS011;4086;54.412;9.980;2023-09-07T07:30:26;4.17;;;3.77;;
8086;SDS011;4086;54.412;9.980;2023-09-07T07:32:53;4.67;;;3.20;;
8086;SDS011;4086;54.412;9.980;2023-09-07T07:35:19;3.57;;;3.27;;
8086;SDS011;4086;54.412;9.980;2023-09-07T07:37:46;3.37;;;3.07;;
8086;SDS011;4086;54.412;9.980;2023-09-07T07:40:14;4.30;;;3.57;;
8086;SDS011;4086;54.412;9.980;2023-09-07T07:42:40;2.90;;;2.70;;
8086;SDS011;4086;54.412;9.980;2023-09-07T07:45:07;3.57;;;2.93;;
8086;SDS011;4086;54.412;9.980;2023-09-07T07:47:34;3.97;;;2.80;;
8086;SDS011;4086;54.412;9.980;2023-09-07T07:50:01;3.90;;;3.60;;
8086;SDS011;4086;54.412;9.980;2023-09-07T07:52:28;3.90;;;3.30;;
8086;SDS011;4086;54.412;9.980;2023-09-07T07:54:54;2.83;;;2.63;;
8086;SDS011;4086;54.412;9.980;2023-09-07T07:57:22;3.33;;;3.03;;
8086;SDS011;4086;54.412;9.980;2023-09-07T07:59:48;3.40;;;3.10;;
8086;SDS011;4086;54.412;9.980;2023-09-07T08:02:15;4.80;;;3.07;;
8086;SDS011;4086;54.412;9.980;2023-09-07T08:04:41;3.57;;;2.60;;
8086;SDS011;4086;54.412;9.980;2023-09-07T08:07:08;3.67;;;3.10;;
8086;SDS011;4086;54.412;9.980;2023-09-07T08:09:34;3.17;;;2.97;;
8086;SDS011;4086;54.412;9.980;2023-09-07T08:12:01;3.93;;;3.30;;
8086;SDS011;4086;54.412;9.980;2023-09-07T08:14:29;3.30;;;2.83;;
8086;SDS011;4086;54.412;9.980;2023-09-07T08:16:56;3.90;;;3.50;;
8086;SDS011;4086;54.412;9.980;2023-09-07T08:19:22;3.50;;;3.20;;
8086;SDS011;4086;54.412;9.980;2023-09-07T08:21:48;3.50;;;3.20;;
8086;SDS011;4086;54.412;9.980;2023-09-07T08:24:14;4.00;;;3.60;;
8086;SDS011;4086;54.412;9.980;2023-09-07T08:26:41;3.20;;;2.90;;
8086;SDS011;4086;54.412;9.980;2023-09-07T08:29:07;4.13;;;2.67;;
8086;SDS011;4086;54.412;9.980;2023-09-07T08:31:37;3.33;;;2.90;;
8086;SDS011;4086;54.412;9.980;2023-09-07T08:34:04;2.90;;;2.70;;
8086;SDS011;4086;54.412;9.980;2023-09-07T08:36:32;3.30;;;3.00;;
8086;SDS011;4086;54.412;9.980;2023-09-07T08:38:59;2.87;;;2.67;;
8086;SDS011;4086;54.412;9.980;2023-09-07T08:41:26;2.50;;;2.30;;
8086;SDS011;4086;54.412;9.980;2023-09-07T08:43:53;3.20;;;2.57;;
8086;SDS011;4086;54.412;9.980;2023-09-07T08:46:22;2.90;;;2.67;;
8086;SDS011;4086;54.412;9.980;2023-09-07T08:48:50;3.67;;;3.03;;
8086;SDS011;4086;54.412;9.980;2023-09-07T08:51:17;3.13;;;2.87;;
8086;SDS011;4086;54.412;9.980;2023-09-07T08:53:44;5.87;;;2.67;;
8086;SDS011;4086;54.412;9.980;2023-09-07T08:56:12;2.13;;;2.03;;
8086;SDS011;4086;54.412;9.980;2023-09-07T08:58:39;2.33;;;2.17;;
8086;SDS011;4086;54.412;9.980;2023-09-07T09:01:06;3.10;;;2.50;;
8086;SDS011;4086;54.412;9.980;2023-09-07T09:03:33;2.70;;;2.50;;
8086;SDS011;4086;54.412;9.980;2023-09-07T09:06:01;3.73;;;2.63;;
8086;SDS011;4086;54.412;9.980;2023-09-07T09:08:28;2.53;;;2.33;;
8086;SDS011;4086;54.412;9.980;2023-09-07T09:10:58;3.00;;;2.80;;
8086;SDS011;4086;54.412;9.980;2023-09-07T09:13:29;2.70;;;2.47;;
8086;SDS011;4086;54.412;9.980;2023-09-07T09:15:58;2.90;;;2.60;;
8086;SDS011;4086;54.412;9.980;2023-09-07T09:18:25;2.25;;;2.10;;
8086;SDS011;4086;54.412;9.980;2023-09-07T09:20:52;2.90;;;2.40;;
8086;SDS011;4086;54.412;9.980;2023-09-07T09:23:20;2.33;;;2.13;;
8086;SDS011;4086;54.412;9.980;2023-09-07T09:25:47;2.58;;;2.38;;
8086;SDS011;4086;54.412;9.980;2023-09-07T09:28:13;3.05;;;2.85;;
8086;SDS011;4086;54.412;9.980;2023-09-07T09:30:41;3.42;;;3.13;;
8086;SDS011;4086;54.412;9.980;2023-09-07T09:33:08;5.53;;;3.28;;
8086;SDS011;4086;54.412;9.980;2023-09-07T09:35:35;3.80;;;3.35;;
8086;SDS011;4086;54.412;9.980;2023-09-07T09:38:03;4.30;;;3.78;;
8086;SDS011;4086;54.412;9.980;2023-09-07T09:40:31;4.28;;;3.97;;
8086;SDS011;4086;54.412;9.980;2023-09-07T09:42:59;3.97;;;3.67;;
8086;SDS011;4086;54.412;9.980;2023-09-07T09:45:28;4.72;;;4.32;;
8086;SDS011;4086;54.412;9.980;2023-09-07T09:47:54;4.40;;;4.00;;
8086;SDS011;4086;54.412;9.980;2023-09-07T09:50:22;3.80;;;3.50;;
8086;SDS011;4086;54.412;9.980;2023-09-07T09:52:48;4.72;;;3.80;;
8086;SDS011;4086;54.412;9.980;2023-09-07T09:55:17;4.40;;;4.00;;
8086;SDS011;4086;54.412;9.980;2023-09-07T09:57:45;4.40;;;4.05;;
8086;SDS011;4086;54.412;9.980;2023-09-07T10:00:12;4.45;;;3.78;;
8086;SDS011;4086;54.412;9.980;2023-09-07T10:02:51;4.60;;;4.20;;
8086;SDS011;4086;54.412;9.980;2023-09-07T10:05:22;4.60;;;4.22;;
8086;SDS011;4086;54.412;9.980;2023-09-07T10:07:49;4.55;;;4.15;;
8086;SDS011;4086;54.412;9.980;2023-09-07T10:10:17;5.07;;;4.60;;
8086;SDS011;4086;54.412;9.980;2023-09-07T10:12:50;4.95;;;4.45;;
8086;SDS011;4086;54.412;9.980;2023-09-07T10:15:22;6.00;;;4.22;;
8086;SDS011;4086;54.412;9.980;2023-09-07T10:17:48;4.10;;;3.80;;
8086;SDS011;4086;54.412;9.980;2023-09-07T10:20:17;3.83;;;3.53;;
8086;SDS011;4086;54.412;9.980;2023-09-07T10:22:46;4.60;;;4.20;;
8086;SDS011;4086;54.412;9.980;2023-09-07T10:25:18;3.65;;;3.33;;
8086;SDS011;4086;54.412;9.980;2023-09-07T10:27:47;3.53;;;3.22;;
8086;SDS011;4086;54.412;9.980;2023-09-07T10:30:13;5.30;;;4.80;;
8086;SDS011;4086;54.412;9.980;2023-09-07T10:32:44;4.88;;;4.38;;
8086;SDS011;4086;54.412;9.980;2023-09-07T10:35:14;7.53;;;4.80;;
8086;SDS011;4086;54.412;9.980;2023-09-07T10:37:41;5.38;;;4.88;;
8086;SDS011;4086;54.412;9.980;2023-09-07T10:40:10;4.38;;;3.95;;
8086;SDS011;4086;54.412;9.980;2023-09-07T10:42:37;4.38;;;3.97;;
8086;SDS011;4086;54.412;9.980;2023-09-07T10:45:12;4.65;;;4.22;;
8086;SDS011;4086;54.412;9.980;2023-09-07T10:47:41;4.72;;;4.30;;
8086;SDS011;4086;54.412;9.980;2023-09-07T10:50:10;4.97;;;4.57;;
8086;SDS011;4086;54.412;9.980;2023-09-07T10:52:37;5.10;;;4.70;;
8086;SDS011;4086;54.412;9.980;2023-09-07T10:55:05;5.75;;;5.07;;
8086;SDS011;4086;54.412;9.980;2023-09-07T10:57:31;7.35;;;4.78;;
8086;SDS011;4086;54.412;9.980;2023-09-07T10:59:58;8.77;;;5.40;;
8086;SDS011;4086;54.412;9.980;2023-09-07T11:02:26;4.43;;;3.97;;
8086;SDS011;4086;54.412;9.980;2023-09-07T11:04:52;5.65;;;5.05;;
8086;SDS011;4086;54.412;9.980;2023-09-07T11:07:18;4.97;;;4.57;;
8086;SDS011;4086;54.412;9.980;2023-09-07T11:09:45;5.20;;;4.63;;
8086;SDS011;4086;54.412;9.980;2023-09-07T11:12:12;6.32;;;5.13;;
8086;SDS011;4086;54.412;9.980;2023-09-07T11:14:39;4.32;;;3.90;;
8086;SDS011;4086;54.412;9.980;2023-09-07T11:17:05;6.07;;;5.47;;
8086;SDS011;4086;54.412;9.980;2023-09-07T11:19:34;6.13;;;5.30;;
8086;SDS011;4086;54.412;9.980;2023-09-07T11:22:00;6.38;;;5.78;;
8086;SDS011;4086;54.412;9.980;2023-09-07T11:24:29;5.47;;;4.95;;
8086;SDS011;4086;54.412;9.980;2023-09-07T11:26:57;5.93;;;5.32;;
8086;SDS011;4086;54.412;9.980;2023-09-07T11:29:24;5.90;;;5.30;;
8086;SDS011;4086;54.412;9.980;2023-09-07T11:31:50;7.00;;;5.32;;
8086;SDS011;4086;54.412;9.980;2023-09-07T11:34:17;6.28;;;5.60;;
8086;SDS011;4086;54.412;9.980;2023-09-07T11:36:45;6.22;;;5.47;;
8086;SDS011;4086;54.412;9.980;2023-09-07T11:39:11;7.22;;;5.30;;
8086;SDS011;4086;54.412;9.980;2023-09-07T11:41:38;7.78;;;5.90;;
8086;SDS011;4086;54.412;9.980;2023-09-07T11:44:06;5.28;;;4.78;;
8086;SDS011;4086;54.412;9.980;2023-09-07T11:46:32;5.93;;;4.97;;
8086;SDS011;4086;54.412;9.980;2023-09-07T11:48:58;7.50;;;4.93;;
8086;SDS011;4086;54.412;9.980;2023-09-07T11:51:25;5.88;;;5.07;;
8086;SDS011;4086;54.412;9.980;2023-09-07T11:53:53;5.00;;;4.50;;
8086;SDS011;4086;54.412;9.980;2023-09-07T11:56:19;5.32;;;4.80;;
8086;SDS011;4086;54.412;9.980;2023-09-07T11:58:46;5.78;;;4.93;;
8086;SDS011;4086;54.412;9.980;2023-09-07T12:01:12;6.57;;;4.90;;
8086;SDS011;4086;54.412;9.980;2023-09-07T12:03:41;6.53;;;5.20;;
8086;SDS011;4086;54.412;9.980;2023-09-07T12:06:07;5.70;;;5.20;;
8086;SDS011;4086;54.412;9.980;2023-09-07T12:08:34;6.47;;;5.88;;
8086;SDS011;4086;54.412;9.980;2023-09-07T12:11:02;5.57;;;5.07;;
8086;SDS011;4086;54.412;9.980;2023-09-07T12:13:28;5.32;;;4.55;;
8086;SDS011;4086;54.412;9.980;2023-09-07T12:15:54;6.05;;;5.55;;
8086;SDS011;4086;54.412;9.980;2023-09-07T12:18:21;6.03;;;5.00;;
8086;SDS011;4086;54.412;9.980;2023-09-07T12:20:48;5.82;;;4.75;;
8086;SDS011;4086;54.412;9.980;2023-09-07T12:23:15;5.13;;;4.68;;
8086;SDS011;4086;54.412;9.980;2023-09-07T12:25:41;4.72;;;4.25;;
8086;SDS011;4086;54.412;9.980;2023-09-07T12:28:10;6.35;;;5.03;;
8086;SDS011;4086;54.412;9.980;2023-09-07T12:30:36;6.45;;;4.63;;
8086;SDS011;4086;54.412;9.980;2023-09-07T12:33:02;5.70;;;5.03;;
8086;SDS011;4086;54.412;9.980;2023-09-07T12:35:29;4.95;;;4.45;;
8086;SDS011;4086;54.412;9.980;2023-09-07T12:37:55;6.18;;;5.57;;
8086;SDS011;4086;54.412;9.980;2023-09-07T12:40:22;5.13;;;4.70;;
8086;SDS011;4086;54.412;9.980;2023-09-07T12:42:49;5.00;;;4.03;;
8086;SDS011;4086;54.412;9.980;2023-09-07T12:45:16;8.02;;;4.85;;
8086;SDS011;4086;54.412;9.980;2023-09-07T12:47:43;5.28;;;4.78;;
8086;SDS011;4086;54.412;9.980;2023-09-07T12:50:09;5.20;;;4.70;;
8086;SDS011;4086;54.412;9.980;2023-09-07T12:52:35;4.65;;;4.22;;
8086;SDS011;4086;54.412;9.980;2023-09-07T12:55:03;4.38;;;3.97;;
8086;SDS011;4086;54.412;9.980;2023-09-07T12:57:29;5.32;;;4.82;;
8086;SDS011;4086;54.412;9.980;2023-09-07T12:59:56;5.88;;;4.63;;
8086;SDS011;4086;54.412;9.980;2023-09-07T13:02:23;4.53;;;4.13;;
8086;SDS011;4086;54.412;9.980;2023-09-07T13:04:50;4.78;;;4.30;;
8086;SDS011;4086;54.412;9.980;2023-09-07T13:07:16;4.65;;;4.13;;
8086;SDS011;4086;54.412;9.980;2023-09-07T13:09:43;4.78;;;4.35;;
8086;SDS011;4086;54.412;9.980;2023-09-07T13:12:10;4.70;;;4.30;;
8086;SDS011;4086;54.412;9.980;2023-09-07T13:14:36;4.22;;;3.80;;
8086;SDS011;4086;54.412;9.980;2023-09-07T13:17:03;4.97;;;4.13;;
8086;SDS011;4086;54.412;9.980;2023-09-07T13:19:31;5.95;;;4.30;;
8086;SDS011;4086;54.412;9.980;2023-09-07T13:21:57;4.40;;;4.07;;
8086;SDS011;4086;54.412;9.980;2023-09-07T13:24:25;4.97;;;4.40;;
8086;SDS011;4086;54.412;9.980;2023-09-07T13:26:51;4.10;;;3.75;;
8086;SDS011;4086;54.412;9.980;2023-09-07T13:29:17;5.30;;;4.55;;
8086;SDS011;4086;54.412;9.980;2023-09-07T13:31:44;6.63;;;4.32;;
8086;SDS011;4086;54.412;9.980;2023-09-07T13:34:10;5.13;;;4.63;;
8086;SDS011;4086;54.412;9.980;2023-09-07T13:36:38;4.47;;;3.90;;
8086;SDS011;4086;54.412;9.980;2023-09-07T13:39:04;4.85;;;4.18;;
8086;SDS011;4086;54.412;9.980;2023-09-07T13:41:31;4.47;;;4.07;;
8086;SDS011;4086;54.412;9.980;2023-09-07T13:43:57;3.85;;;3.55;;
8086;SDS011;4086;54.412;9.980;2023-09-07T13:46:24;3.97;;;3.67;;
8086;SDS011;4086;54.412;9.980;2023-09-07T13:48:50;4.00;;;3.60;;
8086;SDS011;4086;54.412;9.980;2023-09-07T13:51:16;4.25;;;3.70;;
8086;SDS011;4086;54.412;9.980;2023-09-07T13:53:44;4.40;;;4.00;;
8086;SDS011;4086;54.412;9.980;2023-09-07T13:56:11;4.53;;;4.13;;
8086;SDS011;4086;54.412;9.980;2023-09-07T13:58:40;4.13;;;3.83;;
8086;SDS011;4086;54.412;9.980;2023-09-07T14:01:06;4.53;;;3.53;;
8086;SDS011;4086;54.412;9.980;2023-09-07T14:03:33;4.28;;;3.88;;
8086;SDS011;4086;54.412;9.980;2023-09-07T14:05:59;4.32;;;3.92;;
8086;SDS011;4086;54.412;9.980;2023-09-07T14:08:26;4.60;;;4.20;;
8086;SDS011;4086;54.412;9.980;2023-09-07T14:10:53;4.78;;;3.50;;
8086;SDS011;4086;54.412;9.980;2023-09-07T14:13:20;4.82;;;4.38;;
8086;SDS011;4086;54.412;9.980;2023-09-07T14:15:46;4.00;;;3.70;;
8086;SDS011;4086;54.412;9.980;2023-09-07T14:18:13;5.25;;;4.28;;
8086;SDS011;4086;54.412;9.980;2023-09-07T14:20:39;4.45;;;4.05;;
8086;SDS011;4086;54.412;9.980;2023-09-07T14:23:05;4.70;;;4.30;;
8086;SDS011;4086;54.412;9.980;2023-09-07T14:25:32;4.00;;;3.60;;
8086;SDS011;4086;54.412;9.980;2023-09-07T14:28:00;4.07;;;3.75;;
8086;SDS011;4086;54.412;9.980;2023-09-07T14:30:26;4.05;;;3.75;;
8086;SDS011;4086;54.412;9.980;2023-09-07T14:32:52;4.93;;;4.50;;
8086;SDS011;4086;54.412;9.980;2023-09-07T14:35:19;4.82;;;4.43;;
8086;SDS011;4086;54.412;9.980;2023-09-07T14:37:45;5.40;;;4.85;;
8086;SDS011;4086;54.412;9.980;2023-09-07T14:40:12;3.80;;;3.50;;
8086;SDS011;4086;54.412;9.980;2023-09-07T14:42:38;4.40;;;4.00;;
8086;SDS011;4086;54.412;9.980;2023-09-07T14:45:07;4.10;;;3.80;;
8086;SDS011;4086;54.412;9.980;2023-09-07T14:47:33;7.15;;;4.70;;
8086;SDS011;4086;54.412;9.980;2023-09-07T14:50:00;6.28;;;4.38;;
8086;SDS011;4086;54.412;9.980;2023-09-07T14:52:27;4.15;;;3.78;;
8086;SDS011;4086;54.412;9.980;2023-09-07T14:54:53;3.40;;;3.20;;
8086;SDS011;4086;54.412;9.980;2023-09-07T14:57:19;4.35;;;4.00;;
8086;SDS011;4086;54.412;9.980;2023-09-07T14:59:46;4.18;;;3.88;;
8086;SDS011;4086;54.412;9.980;2023-09-07T15:02:14;4.53;;;4.05;;
8086;SDS011;4086;54.412;9.980;2023-09-07T15:04:40;4.28;;;3.95;;
8086;SDS011;4086;54.412;9.980;2023-09-07T15:07:08;5.32;;;4.68;;
8086;SDS011;4086;54.412;9.980;2023-09-07T15:09:34;4.00;;;3.70;;
8086;SDS011;4086;54.412;9.980;2023-09-07T15:12:01;4.25;;;3.85;;
8086;SDS011;4086;54.412;9.980;2023-09-07T15:14:27;3.67;;;3.40;;
8086;SDS011;4086;54.412;9.980;2023-09-07T15:16:53;3.70;;;3.40;;